Latest Weather Observations for Bellambi

IDN60901

Issued at 5:11 pm EST Wednesday 29 June 2016 (issued every 10 minutes, with the page automatically refreshed every 10 minutes)

About weather observations | Map of Sydney area stations | Latest observations for Sydney area | Other Formats
Station Details ID: 068228 Name: BELLAMBI AWS Lat: -34.37 Lon: 150.93 Height: 10.0 m
Data from the previous 72 hours. | See also: Recent months at Bellambi
Date/Time
EST
Temp
°C
App
Temp
°C
Dew
Point
°C
Rel
Hum
%
Delta-T
°C
Wind Press
QNH
hPa
Press
MSL
hPa
Rain since
9am
mm
Dir  Spd
km/h
Gust
km/h
Spd
kts
Gust
kts
29/05:00pm 13.8 11.5 5.9 59 3.7 W 7 11 4 6 - - 0.0
29/04:30pm 15.8 14.4 5.7 51 4.8 ESE 2 7 1 4 - - 0.0
29/04:00pm 16.4 15.5 6.0 50 5.0 CALM 0 2 0 1 - - 0.0
29/03:30pm 16.7 14.5 5.3 47 5.5 SE 6 7 3 4 - - 0.0
29/03:00pm 16.9 14.7 6.1 49 5.3 ESE 7 9 4 5 - - 0.0
29/02:30pm 16.9 14.2 5.8 48 5.4 ESE 9 11 5 6 - - 0.0
29/02:00pm 16.9 14.4 6.7 51 5.0 SE 9 13 5 7 - - 0.0
29/01:30pm 17.0 14.9 6.5 50 5.2 SE 7 9 4 5 - - 0.0
29/01:00pm 16.6 13.4 5.3 47 5.4 SE 11 13 6 7 - - 0.0
29/12:30pm 16.5 13.3 5.2 47 5.4 SE 11 11 6 6 - - 0.0
29/12:00pm 16.7 14.3 5.3 47 5.5 SE 7 9 4 5 - - 0.0
29/11:30am 16.9 14.9 6.4 50 5.2 SE 6 7 3 4 - - 0.0
29/11:00am 16.4 15.1 6.0 50 5.0 SE 2 6 1 3 - - 0.0
29/10:30am 15.9 14.9 5.8 51 4.9 CALM 0 4 0 2 - - 0.0
29/10:00am 15.6 14.1 6.9 56 4.3 SE 4 9 2 5 - - 0.0
29/09:30am 15.2 13.7 6.7 57 4.1 SE 4 6 2 3 - - 0.0
29/09:00am 13.8 12.8 5.4 57 3.9 CALM 0 0 0 0 - - 0.0
29/08:30am 12.4 10.0 4.4 58 3.6 WNW 6 9 3 5 - - 0.0
29/08:00am 10.7 8.3 4.2 64 2.9 NW 6 7 3 4 - - 0.0
29/07:30am 9.7 7.0 3.9 67 2.5 NW 7 9 4 5 - - 0.0
29/07:00am 9.3 7.1 3.5 67 2.5 NW 4 7 2 4 - - 0.0
29/06:30am 8.8 5.9 2.6 65 2.6 WNW 7 9 4 5 - - 0.0
29/06:00am 8.9 6.1 2.9 66 2.6 WNW 7 9 4 5 - - 0.0
29/05:30am 8.6 4.9 2.6 66 2.5 WNW 11 13 6 7 - - 0.0
29/05:00am 8.8 5.5 2.6 65 2.6 NW 9 13 5 7 - - 0.0
29/04:30am 9.0 5.8 3.0 66 2.6 NW 9 13 5 7 - - 0.0
29/04:00am 10.0 8.6 3.7 65 2.8 CALM 0 0 0 0 - - 0.0
29/03:30am 9.9 6.5 2.0 58 3.3 W 9 13 5 7 - - 0.0
29/03:00am 10.4 7.6 3.2 61 3.1 NW 7 11 4 6 - - 0.0
29/02:30am 10.0 5.9 2.4 59 3.2 W 13 19 7 10 - - 0.0
29/02:00am 9.5 6.2 2.4 61 3.0 WNW 9 11 5 6 - - 0.0
29/01:30am 9.4 5.7 2.3 61 3.0 WNW 11 13 6 7 - - 0.0
29/01:00am 9.7 6.5 3.0 63 2.9 WNW 9 11 5 6 - - 0.0
29/12:30am 10.2 6.5 2.3 58 3.4 W 11 15 6 8 - - 0.0
29/12:00am 10.5 6.0 2.4 57 3.5 W 15 20 8 11 - - 0.0
 
Date/Time
EST
Temp
°C
App
Temp
°C
Dew
Point
°C
Rel
Hum
%
Delta-T
°C
Wind Press
QNH
hPa
Press
MSL
hPa
Rain since
9am
mm
Dir  Spd
km/h
Gust
km/h
Spd
kts
Gust
kts
28/11:30pm 10.5 6.0 2.1 56 3.6 W 15 22 8 12 - - 0.0
28/11:00pm 10.6 5.8 2.4 57 3.5 W 17 22 9 12 - - 0.0
28/10:30pm 10.4 5.5 2.3 57 3.4 WSW 17 22 9 12 - - 0.0
28/10:00pm 10.5 5.7 2.6 58 3.4 WSW 17 22 9 12 - - 0.0
28/09:30pm 10.4 6.0 2.7 59 3.3 WSW 15 22 8 12 - - 0.0
28/09:00pm 10.5 6.1 2.8 59 3.3 WSW 15 22 8 12 - - 0.0
28/08:30pm 10.4 6.8 2.7 59 3.3 WSW 11 15 6 8 - - 0.0
28/08:00pm 10.8 6.5 3.1 59 3.3 WSW 15 20 8 11 - - 0.0
28/07:30pm 11.0 7.0 3.1 58 3.4 WSW 13 20 7 11 - - 0.0
28/07:00pm 10.6 7.0 2.7 58 3.4 WNW 11 13 6 7 - - 0.0
28/06:30pm 11.1 7.1 2.7 56 3.6 W 13 15 7 8 - - 0.0
28/06:00pm 11.8 8.1 2.5 53 4.0 W 11 13 6 7 - - 0.0
28/05:30pm 11.7 8.1 3.2 56 3.7 W 11 13 6 7 - - 0.0
28/05:00pm 12.4 9.2 3.1 53 4.1 W 9 11 5 6 - - 0.0
28/04:30pm 13.9 10.2 2.5 46 5.0 SW 11 17 6 9 - - 0.0
28/04:00pm 14.7 9.6 2.9 45 5.3 SW 19 24 10 13 - - 0.0
28/03:30pm 15.1 10.1 4.5 49 4.9 SSW 20 28 11 15 - - 0.0
28/03:00pm 15.2 10.1 4.0 47 5.2 SSW 20 26 11 14 - - 0.0
28/02:30pm 15.2 9.9 5.1 51 4.8 SSW 22 28 12 15 - - 0.0
28/02:00pm 15.0 9.7 2.9 44 5.4 SSW 20 30 11 16 - - 0.0
28/01:30pm 15.4 9.9 3.9 46 5.3 SSW 22 30 12 16 - - 0.0
28/01:00pm 14.9 8.2 3.4 46 5.2 SSW 28 35 15 19 - - 0.0
28/12:30pm 14.7 7.5 2.9 45 5.3 SSW 30 39 16 21 - - 0.0
28/12:00pm 14.6 7.0 3.1 46 5.2 SSW 32 41 17 22 - - 0.0
28/11:30am 14.6 8.3 1.5 41 5.7 SW 24 35 13 19 - - 0.0
28/11:00am 14.2 7.8 1.2 41 5.6 WSW 24 33 13 18 - - 0.0
28/10:30am 14.0 7.8 2.0 44 5.2 SW 24 33 13 18 - - 0.0
28/10:00am 13.6 7.7 1.9 45 5.1 SW 22 32 12 17 - - 0.0
28/09:30am 13.3 7.8 1.9 46 4.9 SW 20 32 11 17 - - 0.0
28/09:00am 12.4 7.9 2.3 50 4.4 WSW 15 22 8 12 - - 1.6
28/08:30am 11.2 6.7 2.0 53 3.9 W 15 20 8 11 - - 1.6
28/08:00am 10.7 5.1 1.5 53 3.9 W 20 28 11 15 - - 1.6
28/07:30am 10.1 5.2 1.7 56 3.5 W 17 20 9 11 - - 1.6
28/07:00am 10.1 5.5 1.5 55 3.6 W 15 24 8 13 - - 1.6
28/06:30am 10.3 5.4 1.7 55 3.6 W 17 22 9 12 - - 1.6
28/06:00am 10.3 5.0 1.7 55 3.6 WSW 19 24 10 13 - - 1.6
28/05:30am 10.9 5.5 2.2 55 3.7 WSW 20 33 11 18 - - 1.6
28/05:00am 10.8 5.9 2.1 55 3.7 WSW 17 24 9 13 - - 1.6
28/04:30am 11.5 6.0 2.0 52 4.1 SW 20 30 11 16 - - 1.6
28/04:00am 11.8 6.4 2.3 52 4.1 SW 20 30 11 16 - - 1.6
28/03:30am 11.7 5.6 2.5 53 4.0 SW 24 35 13 19 - - 1.6
28/03:00am 11.6 5.5 2.6 54 3.9 SW 24 35 13 19 - - 1.6
28/02:30am 11.4 6.3 2.9 56 3.7 WSW 19 32 10 17 - - 1.6
28/02:00am 11.2 5.5 2.8 56 3.6 SW 22 32 12 17 - - 1.6
28/01:30am 11.2 6.1 3.0 57 3.6 WSW 19 30 10 16 - - 1.6
28/01:00am 10.8 5.6 2.6 57 3.5 WSW 19 30 10 16 - - 1.6
28/12:30am 10.8 5.0 2.4 56 3.6 WSW 22 32 12 17 - - 1.6
28/12:00am 10.7 5.5 2.3 56 3.6 WSW 19 26 10 14 - - 1.6
 
Date/Time
EST
Temp
°C
App
Temp
°C
Dew
Point
°C
Rel
Hum
%
Delta-T
°C
Wind Press
QNH
hPa
Press
MSL
hPa
Rain since
9am
mm
Dir  Spd
km/h
Gust
km/h
Spd
kts
Gust
kts
27/11:30pm 10.7 5.3 2.5 57 3.5 WSW 20 30 11 16 - - 1.6
27/11:00pm 10.4 5.3 3.2 61 3.1 WSW 19 26 10 14 - - 1.6
27/10:30pm 10.9 5.5 2.7 57 3.5 WSW 20 28 11 15 - - 1.6
27/10:00pm 11.3 5.6 3.1 57 3.6 WSW 22 35 12 19 - - 1.6
27/09:30pm 11.4 5.4 3.2 57 3.6 SW 24 33 13 18 - - 1.6
27/09:00pm 10.7 5.1 3.7 62 3.1 WSW 22 30 12 16 - - 1.6
27/08:30pm 10.6 5.5 4.1 64 2.9 WSW 20 30 11 16 - - 1.6
27/08:00pm 10.5 4.6 4.0 64 2.9 WSW 24 35 13 19 - - 1.6
27/07:30pm 10.6 5.7 5.2 69 2.5 WSW 20 30 11 16 - - 1.6
27/07:00pm 9.8 5.0 5.8 76 1.8 W 20 32 11 17 - - 1.6
27/06:30pm 10.3 5.6 5.9 74 2.0 WSW 20 33 11 18 - - 1.4
27/06:00pm 10.4 6.2 5.8 73 2.1 WSW 17 24 9 13 - - 1.4
27/05:30pm 10.1 6.7 6.1 76 1.9 WSW 13 22 7 12 - - 1.4
27/05:00pm 10.0 6.7 6.3 78 1.7 WSW 13 17 7 9 - - 1.4
27/04:30pm 10.1 6.8 6.4 78 1.7 WSW 13 17 7 9 - - 1.2
27/04:00pm 10.4 8.3 6.7 78 1.7 W 7 11 4 6 - - 1.2
27/03:30pm 10.8 8.3 6.4 74 2.1 WSW 9 13 5 7 - - 1.0
27/03:00pm 10.8 7.0 5.8 71 2.3 SW 15 19 8 10 - - 1.0
27/02:30pm 11.4 6.2 5.3 66 2.8 SSW 22 28 12 15 - - 0.8
27/02:00pm 11.6 6.8 5.7 67 2.7 SSW 20 28 11 15 - - 0.8
27/01:30pm 11.4 8.4 6.1 70 2.5 SW 11 15 6 8 - - 0.8
27/01:00pm 11.3 8.0 6.6 73 2.2 SW 13 19 7 10 - - 0.8
27/12:30pm 11.1 7.5 6.6 74 2.1 SW 15 20 8 11 - - 0.8
27/12:00pm 10.6 8.6 6.9 78 1.8 WSW 7 11 4 6 - - 0.6
27/11:30am 10.1 8.1 7.0 81 1.5 W 7 9 4 5 - - 0.6
27/11:00am 9.4 6.8 5.9 79 1.6 W 9 15 5 8 - - 0.6
27/10:30am 9.5 6.6 4.9 73 2.1 WNW 9 15 5 8 - - 0.2
27/10:00am 10.0 6.3 4.6 69 2.4 NW 13 19 7 10 - - 0.0
27/09:30am 10.0 7.2 3.3 63 2.9 WSW 7 11 4 6 - - 0.0
27/09:00am 10.1 7.0 3.4 63 2.9 W 9 15 5 8 - - 0.0
27/08:30am 10.1 5.4 3.4 63 2.9 W 17 28 9 15 - - 0.0
27/08:00am 9.6 4.6 3.8 67 2.5 WNW 19 24 10 13 - - 0.0
27/07:30am 9.3 5.2 4.1 70 2.3 WNW 15 22 8 12 - - 0.0
27/07:00am 10.2 3.6 4.1 66 2.7 NNW 28 35 15 19 - - 0.0
27/06:51am 10.8 5.5 4.9 67 2.7 NNW 22 33 12 18 - - 0.0
27/06:30am 10.7 8.1 3.3 60 3.2 NNW 6 11 3 6 - - 0.0
27/06:00am 10.6 5.4 2.2 56 3.6 WSW 19 26 10 14 - - 0.0
27/05:30am 10.7 6.5 1.8 54 3.8 WSW 13 22 7 12 - - 0.0
27/05:00am 11.3 7.0 1.0 49 4.3 WSW 13 20 7 11 - - 0.0
27/04:30am 10.8 5.3 2.1 55 3.7 W 20 26 11 14 - - 0.0
27/04:00am 10.9 6.9 3.0 58 3.4 WNW 13 20 7 11 - - 0.0
27/03:30am 10.8 9.2 2.6 57 3.5 CALM 0 7 0 4 - - 0.0
27/03:00am 10.7 8.0 2.8 58 3.4 WSW 6 11 3 6 - - 0.0
27/02:30am 11.2 7.5 2.2 54 3.8 WNW 11 15 6 8 - - 0.0
27/02:00am 10.2 7.3 2.8 60 3.2 W 7 9 4 5 - - 0.0
27/01:30am 10.4 6.7 2.5 58 3.4 W 11 15 6 8 - - 0.0
27/01:00am 10.9 9.6 3.9 62 3.1 CALM 0 0 0 0 - - 0.0
27/12:30am 11.1 7.8 4.3 63 3.0 NW 11 13 6 7 - - 0.0
27/12:00am 10.9 8.3 3.2 59 3.4 NW 6 7 3 4 - - 0.0
 
Date/Time
EST
Temp
°C
App
Temp
°C
Dew
Point
°C
Rel
Hum
%
Delta-T
°C
Wind Press
QNH
hPa
Press
MSL
hPa
Rain since
9am
mm
Dir  Spd
km/h
Gust
km/h
Spd
kts
Gust
kts
26/11:30pm 10.8 7.5 2.4 56 3.6 WNW 9 11 5 6 - - 0.0
26/11:00pm 10.6 7.6 2.2 56 3.6 WNW 7 9 4 5 - - 0.0
26/10:30pm 10.9 7.5 2.0 54 3.8 W 9 11 5 6 - - 0.0
26/10:00pm 11.4 9.7 1.6 51 4.1 CALM 0 0 0 0 - - 0.0
26/09:30pm 11.5 8.6 1.7 51 4.2 NW 6 7 3 4 - - 0.0
26/09:00pm 11.3 8.6 2.6 55 3.8 NW 6 9 3 5 - - 0.0
26/08:30pm 11.5 8.5 4.3 61 3.2 NW 9 13 5 7 - - 0.0
26/08:00pm 11.4 8.5 4.6 63 3.1 WNW 9 11 5 6 - - 0.0
26/07:30pm 11.3 8.4 4.7 64 3.0 WNW 9 11 5 6 - - 0.0
26/07:00pm 11.7 8.8 4.9 63 3.1 WNW 9 11 5 6 - - 0.0
26/06:30pm 11.8 9.4 5.2 64 3.0 WNW 7 11 4 6 - - 0.0
26/06:00pm 11.9 9.6 5.8 66 2.8 WNW 7 9 4 5 - - 0.0
26/05:30pm 12.2 9.2 6.0 66 2.9 W 11 13 6 7 - - 0.0

Latest Capital City Observations: Canberra | Sydney | Melbourne | Brisbane | Adelaide | Perth | Hobart | Darwin

Other Formats:

Comma delimited format used in spreadsheet applications
http://www.bom.gov.au/fwo/IDN60901/IDN60901.94749.axf

JavaScript Object Notation format (JSON) in row-major order
http://www.bom.gov.au/fwo/IDN60901/IDN60901.94749.json